sensor_id;sensor_type;location;lat;lon;timestamp;pressure;altitude;pressure_sealevel;temperature;humidity
71194;BME280;58903;47.210;8.618;2023-04-28T00:00:29;94083.34;;;26.68;39.73
71194;BME280;58903;47.210;8.618;2023-04-28T00:02:58;94077.84;;;26.68;39.18
71194;BME280;58903;47.210;8.618;2023-04-28T00:05:24;94079.09;;;26.67;39.77
71194;BME280;58903;47.210;8.618;2023-04-28T00:07:56;94077.63;;;26.66;39.38
71194;BME280;58903;47.210;8.618;2023-04-28T00:10:24;94077.63;;;26.66;39.63
71194;BME280;58903;47.210;8.618;2023-04-28T00:12:50;94086.09;;;26.68;39.49
71194;BME280;58903;47.210;8.618;2023-04-28T00:15:25;94078.38;;;26.66;39.46
71194;BME280;58903;47.210;8.618;2023-04-28T00:18:04;94078.88;;;26.65;39.76
71194;BME280;58903;47.210;8.618;2023-04-28T00:20:41;94077.91;;;26.62;39.43
71194;BME280;58903;47.210;8.618;2023-04-28T00:23:08;94079.41;;;26.63;39.21
71194;BME280;58903;47.210;8.618;2023-04-28T00:26:04;94080.16;;;26.64;39.39
71194;BME280;58903;47.210;8.618;2023-04-28T00:28:43;94071.88;;;26.64;39.67
71194;BME280;58903;47.210;8.618;2023-04-28T00:31:13;94070.69;;;26.59;39.47
71194;BME280;58903;47.210;8.618;2023-04-28T00:33:58;94073.88;;;26.63;39.35
71194;BME280;58903;47.210;8.618;2023-04-28T00:36:37;94075.69;;;26.61;39.41
71194;BME280;58903;47.210;8.618;2023-04-28T00:39:22;94086.94;;;26.63;39.35
71194;BME280;58903;47.210;8.618;2023-04-28T00:41:53;94079.94;;;26.62;39.49
71194;BME280;58903;47.210;8.618;2023-04-28T00:44:20;94085.44;;;26.62;39.06
71194;BME280;58903;47.210;8.618;2023-04-28T00:46:49;94082.69;;;26.62;39.30
71194;BME280;58903;47.210;8.618;2023-04-28T00:49:26;94072.16;;;26.60;39.91
71194;BME280;58903;47.210;8.618;2023-04-28T00:51:53;94070.16;;;26.61;39.92
71194;BME280;58903;47.210;8.618;2023-04-28T00:54:19;94071.66;;;26.62;39.05
71194;BME280;58903;47.210;8.618;2023-04-28T00:57:06;94068.91;;;26.62;39.54
71194;BME280;58903;47.210;8.618;2023-04-28T00:59:45;94069.41;;;26.60;40.07
71194;BME280;58903;47.210;8.618;2023-04-28T01:02:13;94080.44;;;26.60;39.29
71194;BME280;58903;47.210;8.618;2023-04-28T01:04:55;94084.47;;;26.59;39.23
71194;BME280;58903;47.210;8.618;2023-04-28T01:07:22;94076.00;;;26.57;39.75
71194;BME280;58903;47.210;8.618;2023-04-28T01:09:48;94064.44;;;26.59;39.86
71194;BME280;58903;47.210;8.618;2023-04-28T01:12:14;94061.44;;;26.57;39.32
71194;BME280;58903;47.210;8.618;2023-04-28T01:14:45;94071.94;;;26.58;39.71
71194;BME280;58903;47.210;8.618;2023-04-28T01:17:12;94078.00;;;26.57;39.08
71194;BME280;58903;47.210;8.618;2023-04-28T01:19:42;94078.75;;;26.57;39.38
71194;BME280;58903;47.210;8.618;2023-04-28T01:22:14;94087.03;;;26.57;39.63
71194;BME280;58903;47.210;8.618;2023-04-28T01:24:56;94091.03;;;26.56;39.67
71194;BME280;58903;47.210;8.618;2023-04-28T01:30:28;94094.53;;;26.57;39.94
71194;BME280;58903;47.210;8.618;2023-04-28T01:32:59;94094.53;;;26.57;39.36
71194;BME280;58903;47.210;8.618;2023-04-28T01:35:27;94093.03;;;26.56;39.88
71194;BME280;58903;47.210;8.618;2023-04-28T01:37:55;94091.03;;;26.56;39.48
71194;BME280;58903;47.210;8.618;2023-04-28T01:40:26;94077.78;;;26.55;39.14
71194;BME280;58903;47.210;8.618;2023-04-28T01:43:03;94064.00;;;26.55;38.91
71194;BME280;58903;47.210;8.618;2023-04-28T01:45:39;94061.75;;;26.53;39.36
71194;BME280;58903;47.210;8.618;2023-04-28T01:48:24;94071.72;;;26.56;39.38
71194;BME280;58903;47.210;8.618;2023-04-28T01:50:55;94077.56;;;26.53;39.73
71194;BME280;58903;47.210;8.618;2023-04-28T01:53:34;94090.81;;;26.54;39.49
71194;BME280;58903;47.210;8.618;2023-04-28T01:56:21;94080.31;;;26.53;39.19
71194;BME280;58903;47.210;8.618;2023-04-28T01:58:49;94070.53;;;26.52;39.03
71194;BME280;58903;47.210;8.618;2023-04-28T02:01:17;94064.59;;;26.48;39.57
71194;BME280;58903;47.210;8.618;2023-04-28T02:03:43;94056.53;;;26.50;39.17
71194;BME280;58903;47.210;8.618;2023-04-28T02:06:11;94064.81;;;26.50;39.51
71194;BME280;58903;47.210;8.618;2023-04-28T02:08:42;94057.50;;;26.52;39.38
71194;BME280;58903;47.210;8.618;2023-04-28T02:11:12;94055.28;;;26.51;39.31
71194;BME280;58903;47.210;8.618;2023-04-28T02:13:40;94062.81;;;26.50;39.48
71194;BME280;58903;47.210;8.618;2023-04-28T02:16:07;94067.03;;;26.51;39.14
71194;BME280;58903;47.210;8.618;2023-04-28T02:18:33;94062.06;;;26.50;39.75
71194;BME280;58903;47.210;8.618;2023-04-28T02:21:11;94059.81;;;26.48;39.45
71194;BME280;58903;47.210;8.618;2023-04-28T02:23:38;94059.28;;;26.50;39.89
71194;BME280;58903;47.210;8.618;2023-04-28T02:26:07;94058.53;;;26.49;39.24
71194;BME280;58903;47.210;8.618;2023-04-28T02:28:38;94062.59;;;26.48;40.23
71194;BME280;58903;47.210;8.618;2023-04-28T02:31:08;94063.34;;;26.49;39.67
71194;BME280;58903;47.210;8.618;2023-04-28T02:33:43;94059.28;;;26.50;39.65
71194;BME280;58903;47.210;8.618;2023-04-28T02:36:19;94052.31;;;26.49;39.27
71194;BME280;58903;47.210;8.618;2023-04-28T02:38:46;94048.03;;;26.48;39.39
71194;BME280;58903;47.210;8.618;2023-04-28T02:41:24;94056.84;;;26.46;39.73
71194;BME280;58903;47.210;8.618;2023-04-28T02:43:57;94065.88;;;26.47;39.54
71194;BME280;58903;47.210;8.618;2023-04-28T02:46:36;94069.88;;;26.46;39.43
71194;BME280;58903;47.210;8.618;2023-04-28T02:49:11;94073.41;;;26.46;39.58
71194;BME280;58903;47.210;8.618;2023-04-28T02:51:57;94076.91;;;26.47;39.77
71194;BME280;58903;47.210;8.618;2023-04-28T02:54:25;94090.69;;;26.47;39.90
71194;BME280;58903;47.210;8.618;2023-04-28T02:57:03;94094.94;;;26.48;39.35
71194;BME280;58903;47.210;8.618;2023-04-28T02:59:33;94093.97;;;26.45;39.78
71194;BME280;58903;47.210;8.618;2023-04-28T03:02:02;94077.94;;;26.44;40.04
71194;BME280;58903;47.210;8.618;2023-04-28T03:04:34;94070.19;;;26.42;39.37
71194;BME280;58903;47.210;8.618;2023-04-28T03:07:17;94076.66;;;26.45;39.16
71194;BME280;58903;47.210;8.618;2023-04-28T03:09:46;94078.69;;;26.44;39.41
71194;BME280;58903;47.210;8.618;2023-04-28T03:12:13;94080.16;;;26.45;39.22
71194;BME280;58903;47.210;8.618;2023-04-28T03:14:46;94083.47;;;26.44;39.49
71194;BME280;58903;47.210;8.618;2023-04-28T03:17:18;94083.25;;;26.42;39.35
71194;BME280;58903;47.210;8.618;2023-04-28T03:19:46;94080.75;;;26.38;39.67
71194;BME280;58903;47.210;8.618;2023-04-28T03:22:27;94086.00;;;26.42;39.37
71194;BME280;58903;47.210;8.618;2023-04-28T03:24:53;94095.53;;;26.41;39.39
71194;BME280;58903;47.210;8.618;2023-04-28T03:27:24;94090.97;;;26.43;39.73
71194;BME280;58903;47.210;8.618;2023-04-28T03:29:51;94086.75;;;26.42;40.15
71194;BME280;58903;47.210;8.618;2023-04-28T03:32:30;94079.19;;;26.43;39.56
71194;BME280;58903;47.210;8.618;2023-04-28T03:35:01;94066.69;;;26.42;39.48
71194;BME280;58903;47.210;8.618;2023-04-28T03:37:32;94056.91;;;26.41;39.39
71194;BME280;58903;47.210;8.618;2023-04-28T03:40:27;94056.91;;;26.41;39.24
71194;BME280;58903;47.210;8.618;2023-04-28T03:42:53;94062.44;;;26.41;39.14
71194;BME280;58903;47.210;8.618;2023-04-28T03:45:29;94063.94;;;26.42;39.33
71194;BME280;58903;47.210;8.618;2023-04-28T03:48:28;94069.44;;;26.42;39.19
71194;BME280;58903;47.210;8.618;2023-04-28T03:50:56;94066.25;;;26.38;39.42
71194;BME280;58903;47.210;8.618;2023-04-28T03:53:53;94065.72;;;26.39;39.51
71194;BME280;58903;47.210;8.618;2023-04-28T03:56:20;94067.72;;;26.39;39.64
71194;BME280;58903;47.210;8.618;2023-04-28T03:58:56;94063.50;;;26.38;39.78
71194;BME280;58903;47.210;8.618;2023-04-28T04:01:32;94065.50;;;26.37;39.25
71194;BME280;58903;47.210;8.618;2023-04-28T04:04:20;94073.78;;;26.37;39.77
71194;BME280;58903;47.210;8.618;2023-04-28T04:06:48;94068.25;;;26.37;39.50
71194;BME280;58903;47.210;8.618;2023-04-28T04:09:15;94070.28;;;26.37;39.82
71194;BME280;58903;47.210;8.618;2023-04-28T04:11:52;94077.28;;;26.38;39.19
71194;BME280;58903;47.210;8.618;2023-04-28T04:14:28;94073.78;;;26.37;39.77
71194;BME280;58903;47.210;8.618;2023-04-28T04:16:56;94066.03;;;26.36;39.08
71194;BME280;58903;47.210;8.618;2023-04-28T04:19:53;94072.28;;;26.36;40.06
71194;BME280;58903;47.210;8.618;2023-04-28T04:22:21;94077.78;;;26.36;39.27
71194;BME280;58903;47.210;8.618;2023-04-28T04:24:47;94084.81;;;26.37;39.91
71194;BME280;58903;47.210;8.618;2023-04-28T04:27:16;94082.81;;;26.38;39.79
71194;BME280;58903;47.210;8.618;2023-04-28T04:29:42;94085.84;;;26.34;39.82
71194;BME280;58903;47.210;8.618;2023-04-28T04:32:08;94082.06;;;26.37;39.49
71194;BME280;58903;47.210;8.618;2023-04-28T04:34:51;94081.84;;;26.35;39.33
71194;BME280;58903;47.210;8.618;2023-04-28T04:37:17;94079.81;;;26.36;39.57
71194;BME280;58903;47.210;8.618;2023-04-28T04:39:44;94081.06;;;26.35;39.86
71194;BME280;58903;47.210;8.618;2023-04-28T04:42:10;94079.59;;;26.34;39.67
71194;BME280;58903;47.210;8.618;2023-04-28T04:44:39;94082.38;;;26.34;39.17
71194;BME280;58903;47.210;8.618;2023-04-28T04:47:12;94081.59;;;26.33;39.46
71194;BME280;58903;47.210;8.618;2023-04-28T04:49:54;94086.16;;;26.31;39.30
71194;BME280;58903;47.210;8.618;2023-04-28T04:52:21;94084.91;;;26.32;39.42
71194;BME280;58903;47.210;8.618;2023-04-28T04:54:47;94086.91;;;26.31;39.77
71194;BME280;58903;47.210;8.618;2023-04-28T04:57:13;94080.63;;;26.31;39.38
71194;BME280;58903;47.210;8.618;2023-04-28T04:59:39;94081.38;;;26.31;39.59
71194;BME280;58903;47.210;8.618;2023-04-28T05:02:06;94071.41;;;26.28;39.41
71194;BME280;58903;47.210;8.618;2023-04-28T05:04:33;94074.09;;;26.34;39.19
71194;BME280;58903;47.210;8.618;2023-04-28T05:06:59;94077.34;;;26.32;40.03
71194;BME280;58903;47.210;8.618;2023-04-28T05:09:26;94060.81;;;26.32;39.88
71194;BME280;58903;47.210;8.618;2023-04-28T05:11:52;94058.69;;;26.25;39.60
71194;BME280;58903;47.210;8.618;2023-04-28T05:14:20;94078.69;;;26.26;39.31
71194;BME280;58903;47.210;8.618;2023-04-28T05:16:48;94068.19;;;26.24;39.92
71194;BME280;58903;47.210;8.618;2023-04-28T05:19:15;94070.19;;;26.24;40.01
71194;BME280;58903;47.210;8.618;2023-04-28T05:21:41;94065.97;;;26.23;40.23
71194;BME280;58903;47.210;8.618;2023-04-28T05:24:08;94062.91;;;26.26;40.19
71194;BME280;58903;47.210;8.618;2023-04-28T05:26:37;94065.13;;;26.28;40.12
71194;BME280;58903;47.210;8.618;2023-04-28T05:29:03;94071.72;;;26.25;40.03
71194;BME280;58903;47.210;8.618;2023-04-28T05:31:33;94072.97;;;26.24;39.75
71194;BME280;58903;47.210;8.618;2023-04-28T05:33:59;94074.25;;;26.23;39.88
71194;BME280;58903;47.210;8.618;2023-04-28T05:36:25;94077.72;;;26.23;39.91
71194;BME280;58903;47.210;8.618;2023-04-28T05:38:52;94079.00;;;26.22;40.26
71194;BME280;58903;47.210;8.618;2023-04-28T05:41:21;94074.03;;;26.21;39.71
71194;BME280;58903;47.210;8.618;2023-04-28T05:43:49;94077.97;;;26.25;39.67
71194;BME280;58903;47.210;8.618;2023-04-28T05:46:19;94084.22;;;26.26;39.98
71194;BME280;58903;47.210;8.618;2023-04-28T05:48:47;94075.94;;;26.26;39.48
71194;BME280;58903;47.210;8.618;2023-04-28T05:51:15;94088.25;;;26.25;39.76
71194;BME280;58903;47.210;8.618;2023-04-28T05:53:41;94086.75;;;26.24;39.96
71194;BME280;58903;47.210;8.618;2023-04-28T05:56:07;94091.50;;;26.23;39.46
71194;BME280;58903;47.210;8.618;2023-04-28T05:58:34;94096.00;;;26.26;39.87
71194;BME280;58903;47.210;8.618;2023-04-28T06:01:01;94100.75;;;26.26;39.48
71194;BME280;58903;47.210;8.618;2023-04-28T06:03:29;94097.78;;;26.24;40.11
71194;BME280;58903;47.210;8.618;2023-04-28T06:06:03;94100.53;;;26.24;39.91
71194;BME280;58903;47.210;8.618;2023-04-28T06:08:30;94100.53;;;26.24;39.75
71194;BME280;58903;47.210;8.618;2023-04-28T06:11:02;94101.06;;;26.22;40.00
71194;BME280;58903;47.210;8.618;2023-04-28T06:13:30;94113.06;;;26.25;39.99
71194;BME280;58903;47.210;8.618;2023-04-28T06:15:58;94104.03;;;26.24;39.53
71194;BME280;58903;47.210;8.618;2023-04-28T06:18:24;94110.31;;;26.25;39.71
71194;BME280;58903;47.210;8.618;2023-04-28T06:20:56;94117.06;;;26.24;39.82
71194;BME280;58903;47.210;8.618;2023-04-28T06:23:22;94110.59;;;26.21;40.14
71194;BME280;58903;47.210;8.618;2023-04-28T06:26:03;94115.38;;;26.21;39.76
71194;BME280;58903;47.210;8.618;2023-04-28T06:28:39;94108.34;;;26.20;39.50
71194;BME280;58903;47.210;8.618;2023-04-28T06:31:08;94114.84;;;26.22;39.43
71194;BME280;58903;47.210;8.618;2023-04-28T06:34:01;94117.91;;;26.19;39.78
71194;BME280;58903;47.210;8.618;2023-04-28T06:36:27;94111.94;;;26.14;39.97
71194;BME280;58903;47.210;8.618;2023-04-28T06:39:07;94120.19;;;26.14;40.26
71194;BME280;58903;47.210;8.618;2023-04-28T06:42:00;94117.22;;;26.12;39.97
71194;BME280;58903;47.210;8.618;2023-04-28T06:44:57;94120.50;;;26.11;40.11
71194;BME280;58903;47.210;8.618;2023-04-28T06:47:27;94127.75;;;26.14;39.72
71194;BME280;58903;47.210;8.618;2023-04-28T06:50:06;94133.97;;;26.14;39.56
71194;BME280;58903;47.210;8.618;2023-04-28T06:52:33;94136.50;;;26.12;39.66
71194;BME280;58903;47.210;8.618;2023-04-28T06:55:25;94124.22;;;26.13;39.61
71194;BME280;58903;47.210;8.618;2023-04-28T06:57:52;94119.97;;;26.12;40.17
71194;BME280;58903;47.210;8.618;2023-04-28T07:00:18;94119.25;;;26.12;40.05
71194;BME280;58903;47.210;8.618;2023-04-28T07:02:50;94120.72;;;26.13;39.94
71194;BME280;58903;47.210;8.618;2023-04-28T07:05:25;94104.72;;;26.11;40.21
71194;BME280;58903;47.210;8.618;2023-04-28T07:07:58;94115.44;;;26.15;40.04
71194;BME280;58903;47.210;8.618;2023-04-28T07:10:35;94120.19;;;26.14;39.77
71194;BME280;58903;47.210;8.618;2023-04-28T07:13:02;94122.94;;;26.14;40.34
71194;BME280;58903;47.210;8.618;2023-04-28T07:15:35;94111.94;;;26.14;40.09
71194;BME280;58903;47.210;8.618;2023-04-28T07:18:25;94106.41;;;26.14;40.42
71194;BME280;58903;47.210;8.618;2023-04-28T07:20:51;94106.94;;;26.13;40.14
71194;BME280;58903;47.210;8.618;2023-04-28T07:23:25;94103.44;;;26.12;39.50
71194;BME280;58903;47.210;8.618;2023-04-28T07:26:10;94104.94;;;26.13;39.90
71194;BME280;58903;47.210;8.618;2023-04-28T07:28:41;94089.88;;;26.14;40.04
71194;BME280;58903;47.210;8.618;2023-04-28T07:31:14;94089.88;;;26.14;39.71
71194;BME280;58903;47.210;8.618;2023-04-28T07:33:40;94091.38;;;26.15;40.22
71194;BME280;58903;47.210;8.618;2023-04-28T07:36:08;94083.09;;;26.15;40.33
71194;BME280;58903;47.210;8.618;2023-04-28T07:38:42;94078.13;;;26.14;39.75
71194;BME280;58903;47.210;8.618;2023-04-28T07:41:10;94078.84;;;26.14;39.57
71194;BME280;58903;47.210;8.618;2023-04-28T07:43:51;94078.84;;;26.14;39.73
71194;BME280;58903;47.210;8.618;2023-04-28T07:46:19;94091.91;;;26.14;39.71
71194;BME280;58903;47.210;8.618;2023-04-28T07:48:46;94091.69;;;26.12;40.22
71194;BME280;58903;47.210;8.618;2023-04-28T07:51:28;94102.63;;;26.17;40.36
71194;BME280;58903;47.210;8.618;2023-04-28T07:54:03;94099.13;;;26.17;39.58
71194;BME280;58903;47.210;8.618;2023-04-28T07:56:39;94108.66;;;26.16;39.36
71194;BME280;58903;47.210;8.618;2023-04-28T07:59:07;94118.94;;;26.15;39.80
71194;BME280;58903;47.210;8.618;2023-04-28T08:01:35;94119.25;;;26.12;39.64
71194;BME280;58903;47.210;8.618;2023-04-28T08:04:00;94128.25;;;26.12;40.07
71194;BME280;58903;47.210;8.618;2023-04-28T08:06:27;94131.97;;;26.15;39.88
71194;BME280;58903;47.210;8.618;2023-04-28T08:08:55;94124.44;;;26.15;40.57
71194;BME280;58903;47.210;8.618;2023-04-28T08:11:29;94129.22;;;26.15;39.88
71194;BME280;58903;47.210;8.618;2023-04-28T08:13:57;94132.72;;;26.15;39.94
71194;BME280;58903;47.210;8.618;2023-04-28T08:16:29;94127.22;;;26.15;39.66
71194;BME280;58903;47.210;8.618;2023-04-28T08:18:57;94124.44;;;26.15;39.90
71194;BME280;58903;47.210;8.618;2023-04-28T08:21:24;94119.16;;;26.17;40.52
71194;BME280;58903;47.210;8.618;2023-04-28T08:23:53;94129.97;;;26.15;39.86
71194;BME280;58903;47.210;8.618;2023-04-28T08:26:19;94146.50;;;26.15;39.90
71194;BME280;58903;47.210;8.618;2023-04-28T08:28:49;94154.56;;;26.13;39.81
71194;BME280;58903;47.210;8.618;2023-04-28T08:31:17;94156.78;;;26.15;39.77
71194;BME280;58903;47.210;8.618;2023-04-28T08:33:44;94159.53;;;26.15;39.85
71194;BME280;58903;47.210;8.618;2023-04-28T08:36:28;94172.06;;;26.16;40.16
71194;BME280;58903;47.210;8.618;2023-04-28T08:38:59;94174.06;;;26.15;39.97
71194;BME280;58903;47.210;8.618;2023-04-28T08:41:31;94161.53;;;26.14;39.86
71194;BME280;58903;47.210;8.618;2023-04-28T08:44:00;94174.81;;;26.16;40.39
71194;BME280;58903;47.210;8.618;2023-04-28T08:46:27;94166.09;;;26.12;40.49
71194;BME280;58903;47.210;8.618;2023-04-28T08:48:59;94176.59;;;26.13;40.68
71194;BME280;58903;47.210;8.618;2023-04-28T08:51:41;94169.59;;;26.12;39.76
71194;BME280;58903;47.210;8.618;2023-04-28T08:54:13;94171.53;;;26.17;40.00
71194;BME280;58903;47.210;8.618;2023-04-28T08:56:43;94169.81;;;26.14;40.42
71194;BME280;58903;47.210;8.618;2023-04-28T08:59:11;94172.56;;;26.14;40.53
71194;BME280;58903;47.210;8.618;2023-04-28T09:01:53;94157.09;;;26.11;40.50
71194;BME280;58903;47.210;8.618;2023-04-28T09:04:21;94165.34;;;26.11;40.38
71194;BME280;58903;47.210;8.618;2023-04-28T09:06:51;94174.38;;;26.12;40.44
71194;BME280;58903;47.210;8.618;2023-04-28T09:09:30;94155.56;;;26.10;40.69
71194;BME280;58903;47.210;8.618;2023-04-28T09:12:01;94162.59;;;26.11;39.79
71194;BME280;58903;47.210;8.618;2023-04-28T09:14:31;94162.59;;;26.11;40.27
71194;BME280;58903;47.210;8.618;2023-04-28T09:17:02;94157.59;;;26.10;39.88
71194;BME280;58903;47.210;8.618;2023-04-28T09:20:01;94165.84;;;26.10;39.88
71194;BME280;58903;47.210;8.618;2023-04-28T09:22:37;94165.84;;;26.10;41.06
71194;BME280;58903;47.210;8.618;2023-04-28T09:25:14;94159.63;;;26.09;40.04
71194;BME280;58903;47.210;8.618;2023-04-28T09:27:52;94163.63;;;26.08;40.65
71194;BME280;58903;47.210;8.618;2023-04-28T09:30:40;94161.09;;;26.10;40.11
71194;BME280;58903;47.210;8.618;2023-04-28T09:33:11;94164.06;;;26.12;40.73
71194;BME280;58903;47.210;8.618;2023-04-28T09:35:41;94163.34;;;26.12;40.23
71194;BME280;58903;47.210;8.618;2023-04-28T09:38:11;94162.81;;;26.13;40.23
71194;BME280;58903;47.210;8.618;2023-04-28T09:40:55;94167.06;;;26.14;40.63
71194;BME280;58903;47.210;8.618;2023-04-28T09:43:36;94158.56;;;26.12;40.13
71194;BME280;58903;47.210;8.618;2023-04-28T09:46:04;94156.34;;;26.11;40.52
71194;BME280;58903;47.210;8.618;2023-04-28T09:48:33;94158.56;;;26.12;40.46
71194;BME280;58903;47.210;8.618;2023-04-28T09:51:01;94160.34;;;26.10;40.71
71194;BME280;58903;47.210;8.618;2023-04-28T09:53:28;94159.63;;;26.09;40.58
71194;BME280;58903;47.210;8.618;2023-04-28T09:59:09;94155.53;;;26.16;40.09
71194;BME280;58903;47.210;8.618;2023-04-28T10:01:39;94161.03;;;26.16;40.42
71194;BME280;58903;47.210;8.618;2023-04-28T10:04:14;94166.56;;;26.16;39.76
71194;BME280;58903;47.210;8.618;2023-04-28T10:07:19;94166.09;;;26.12;40.61
71194;BME280;58903;47.210;8.618;2023-04-28T10:10:03;94180.38;;;26.10;40.83
71194;BME280;58903;47.210;8.618;2023-04-28T10:12:31;94191.19;;;26.08;39.99
71194;BME280;58903;47.210;8.618;2023-04-28T10:14:58;94187.66;;;26.08;40.80
71194;BME280;58903;47.210;8.618;2023-04-28T10:17:33;94191.94;;;26.09;40.54
71194;BME280;58903;47.210;8.618;2023-04-28T10:20:01;94184.16;;;26.07;40.86
71194;BME280;58903;47.210;8.618;2023-04-28T10:22:58;94175.41;;;26.09;40.76
71194;BME280;58903;47.210;8.618;2023-04-28T10:25:54;94184.16;;;26.07;40.15
71194;BME280;58903;47.210;8.618;2023-04-28T10:28:26;94178.91;;;26.09;40.80
71194;BME280;58903;47.210;8.618;2023-04-28T10:31:32;94183.66;;;26.09;40.32
71194;BME280;58903;47.210;8.618;2023-04-28T10:34:30;94184.16;;;26.07;41.02
71194;BME280;58903;47.210;8.618;2023-04-28T10:36:58;94190.94;;;26.06;40.41
71194;BME280;58903;47.210;8.618;2023-04-28T10:39:34;94179.91;;;26.06;40.19
71194;BME280;58903;47.210;8.618;2023-04-28T10:45:09;94179.38;;;26.08;40.14
71194;BME280;58903;47.210;8.618;2023-04-28T10:48:01;94181.41;;;26.07;40.11
71194;BME280;58903;47.210;8.618;2023-04-28T10:56:26;94174.41;;;26.06;40.22
71194;BME280;58903;47.210;8.618;2023-04-28T10:58:59;94180.91;;;26.09;39.97
71194;BME280;58903;47.210;8.618;2023-04-28T11:01:37;94185.69;;;26.08;40.32
71194;BME280;58903;47.210;8.618;2023-04-28T11:04:32;94181.66;;;26.09;40.98
71194;BME280;58903;47.210;8.618;2023-04-28T11:07:18;94170.63;;;26.09;40.27
71194;BME280;58903;47.210;8.618;2023-04-28T11:12:23;94174.66;;;26.08;40.29
71194;BME280;58903;47.210;8.618;2023-04-28T11:14:51;94178.91;;;26.09;40.71
71194;BME280;58903;47.210;8.618;2023-04-28T11:17:39;94173.88;;;26.08;40.24
71194;BME280;58903;47.210;8.618;2023-04-28T11:20:20;94178.09;;;26.14;40.29
71194;BME280;58903;47.210;8.618;2023-04-28T11:23:19;94184.78;;;26.19;40.11
71194;BME280;58903;47.210;8.618;2023-04-28T11:26:05;94175.06;;;26.18;39.99
71194;BME280;58903;47.210;8.618;2023-04-28T11:28:32;94180.34;;;26.16;40.47
71194;BME280;58903;47.210;8.618;2023-04-28T11:31:18;94182.03;;;26.19;40.35
71194;BME280;58903;47.210;8.618;2023-04-28T11:34:23;94183.00;;;26.22;40.76
71194;BME280;58903;47.210;8.618;2023-04-28T11:36:51;94186.31;;;26.20;40.46
71194;BME280;58903;47.210;8.618;2023-04-28T11:39:26;94178.78;;;26.21;40.28
71194;BME280;58903;47.210;8.618;2023-04-28T11:41:59;94178.78;;;26.21;39.81
71194;BME280;58903;47.210;8.618;2023-04-28T11:44:29;94180.25;;;26.22;39.62
71194;BME280;58903;47.210;8.618;2023-04-28T11:47:02;94178.25;;;26.22;39.83
71194;BME280;58903;47.210;8.618;2023-04-28T11:49:44;94174.28;;;26.17;39.75
71194;BME280;58903;47.210;8.618;2023-04-28T11:52:24;94172.50;;;26.20;40.52
71194;BME280;58903;47.210;8.618;2023-04-28T11:55:00;94171.75;;;26.20;40.19
71194;BME280;58903;47.210;8.618;2023-04-28T12:00:40;94160.97;;;26.22;39.75
71194;BME280;58903;47.210;8.618;2023-04-28T12:03:07;94156.19;;;26.22;40.47
71194;BME280;58903;47.210;8.618;2023-04-28T12:05:51;94165.50;;;26.19;40.35
71194;BME280;58903;47.210;8.618;2023-04-28T12:08:29;94166.25;;;26.20;39.98
71194;BME280;58903;47.210;8.618;2023-04-28T12:11:17;94167.53;;;26.19;40.29
71194;BME280;58903;47.210;8.618;2023-04-28T12:17:32;94166.78;;;26.18;39.94
71194;BME280;58903;47.210;8.618;2023-04-28T12:20:09;94170.50;;;26.21;40.13
71194;BME280;58903;47.210;8.618;2023-04-28T12:22:51;94166.47;;;26.22;40.53
71194;BME280;58903;47.210;8.618;2023-04-28T12:25:18;94172.00;;;26.22;40.05
71194;BME280;58903;47.210;8.618;2023-04-28T12:28:03;94182.03;;;26.19;39.69
71194;BME280;58903;47.210;8.618;2023-04-28T12:30:34;94173.31;;;26.15;40.30
71194;BME280;58903;47.210;8.618;2023-04-28T12:36:41;94180.56;;;26.18;40.45
71194;BME280;58903;47.210;8.618;2023-04-28T12:39:12;94177.06;;;26.17;40.21
71194;BME280;58903;47.210;8.618;2023-04-28T12:41:41;94176.03;;;26.21;40.20
71194;BME280;58903;47.210;8.618;2023-04-28T12:44:07;94169.75;;;26.20;40.50
71194;BME280;58903;47.210;8.618;2023-04-28T12:46:33;94177.81;;;26.18;39.63
71194;BME280;58903;47.210;8.618;2023-04-28T12:48:59;94180.78;;;26.20;39.89
71194;BME280;58903;47.210;8.618;2023-04-28T12:51:27;94179.28;;;26.19;39.86
71194;BME280;58903;47.210;8.618;2023-04-28T12:53:55;94172.28;;;26.18;40.30
71194;BME280;58903;47.210;8.618;2023-04-28T12:56:21;94175.28;;;26.20;40.01
71194;BME280;58903;47.210;8.618;2023-04-28T12:58:48;94171.22;;;26.21;39.83
71194;BME280;58903;47.210;8.618;2023-04-28T13:01:43;94173.25;;;26.21;40.14
71194;BME280;58903;47.210;8.618;2023-04-28T13:04:09;94172.50;;;26.20;39.79
71194;BME280;58903;47.210;8.618;2023-04-28T13:06:38;94174.53;;;26.20;40.18
71194;BME280;58903;47.210;8.618;2023-04-28T13:09:07;94160.50;;;26.17;40.15
71194;BME280;58903;47.210;8.618;2023-04-28T13:11:33;94160.28;;;26.15;40.33
71194;BME280;58903;47.210;8.618;2023-04-28T13:14:02;94161.75;;;26.16;40.21
71194;BME280;58903;47.210;8.618;2023-04-28T13:16:29;94157.75;;;26.17;40.17
71194;BME280;58903;47.210;8.618;2023-04-28T13:18:55;94147.75;;;26.14;40.17
71194;BME280;58903;47.210;8.618;2023-04-28T13:21:26;94147.03;;;26.14;40.32
71194;BME280;58903;47.210;8.618;2023-04-28T13:23:56;94150.75;;;26.16;40.36
71194;BME280;58903;47.210;8.618;2023-04-28T13:26:22;94125.19;;;26.16;39.53
71194;BME280;58903;47.210;8.618;2023-04-28T13:28:52;94111.94;;;26.14;40.43
71194;BME280;58903;47.210;8.618;2023-04-28T13:31:18;94124.69;;;26.17;40.09
71194;BME280;58903;47.210;8.618;2023-04-28T13:33:46;94115.44;;;26.15;39.82
71194;BME280;58903;47.210;8.618;2023-04-28T13:36:13;94100.91;;;26.14;40.43
71194;BME280;58903;47.210;8.618;2023-04-28T13:38:39;94103.44;;;26.12;40.26
71194;BME280;58903;47.210;8.618;2023-04-28T13:41:06;94107.16;;;26.15;39.79
71194;BME280;58903;47.210;8.618;2023-04-28T13:43:32;94109.38;;;26.16;40.11
71194;BME280;58903;47.210;8.618;2023-04-28T13:46:02;94102.41;;;26.15;40.41
71194;BME280;58903;47.210;8.618;2023-04-28T13:48:33;94106.13;;;26.18;39.77
71194;BME280;58903;47.210;8.618;2023-04-28T13:51:02;94089.44;;;26.10;40.45
71194;BME280;58903;47.210;8.618;2023-04-28T13:53:37;94099.88;;;26.17;40.24
71194;BME280;58903;47.210;8.618;2023-04-28T13:56:05;94096.13;;;26.15;40.05
71194;BME280;58903;47.210;8.618;2023-04-28T13:58:32;94089.88;;;26.14;40.26